Time;durP1;ratioP1;P1;durP2;ratioP2;P2;SDS_P1;SDS_P2;PMS_P1;PMS_P2;Temp;Humidity;BMP_temperature;BMP_pressure;BME280_temperature;BME280_humidity;BME280_pressure;Samples;Min_cycle;Max_cycle;Signal;HPM_P1;HPM_P2
2024/04/07 00:01:04;;;;;;;;;1.75;1.75;;;;;;;;5047648;28;8814;-90
2024/04/07 00:03:30;;;;;;;;;3.25;2.00;;;;;;;;5048805;28;8924;-89
2024/04/07 00:05:58;;;;;;;;;3.00;1.50;;;;;;;;5051565;28;8982;-88
2024/04/07 00:08:24;;;;;;;;;1.00;1.00;;;;;;;;5046914;28;8856;-88
2024/04/07 00:10:51;;;;;;;;;2.25;2.00;;;;;;;;5048758;28;8949;-88
2024/04/07 00:13:17;;;;;;;;;1.00;1.00;;;;;;;;5047749;28;8879;-87
2024/04/07 00:15:45;;;;;;;;;2.00;2.00;;;;;;;;5048333;28;8855;-88
2024/04/07 00:18:13;;;;;;;;;2.00;2.00;;;;;;;;5047777;28;8877;-89
2024/04/07 00:20:40;;;;;;;;;2.00;2.00;;;;;;;;5048627;28;8921;-88
2024/04/07 00:23:07;;;;;;;;;4.00;2.00;;;;;;;;5050417;28;8839;-87
2024/04/07 00:25:34;;;;;;;;;1.00;1.00;;;;;;;;5056009;28;8924;-88
2024/04/07 00:28:00;;;;;;;;;3.25;2.00;;;;;;;;5058485;28;8874;-87
2024/04/07 00:30:27;;;;;;;;;2.00;2.00;;;;;;;;5056788;28;8703;-87
2024/04/07 00:32:54;;;;;;;;;4.00;2.75;;;;;;;;5055481;28;8862;-87
2024/04/07 00:35:25;;;;;;;;;2.25;2.00;;;;;;;;5056427;28;8936;-87
2024/04/07 00:37:51;;;;;;;;;5.00;2.00;;;;;;;;5055902;28;8893;-88
2024/04/07 00:40:19;;;;;;;;;2.00;2.00;;;;;;;;5056947;28;8871;-86
2024/04/07 00:42:48;;;;;;;;;3.50;2.00;;;;;;;;5054264;28;8855;-87
2024/04/07 00:45:15;;;;;;;;;4.25;1.75;;;;;;;;5052421;28;8859;-87
2024/04/07 00:47:42;;;;;;;;;1.00;1.00;;;;;;;;5040971;28;8863;-88
2024/04/07 00:50:09;;;;;;;;;1.60;0.80;;;;;;;;5051629;28;8891;-88
2024/04/07 00:52:38;;;;;;;;;1.00;1.00;;;;;;;;5052498;28;8894;-88
2024/04/07 00:55:08;;;;;;;;;4.00;1.00;;;;;;;;5051816;28;8875;-88
2024/04/07 00:57:35;;;;;;;;;0.00;0.00;;;;;;;;5051986;28;8890;-88
2024/04/07 01:00:05;;;;;;;;;0.40;0.00;;;;;;;;5051141;28;8863;-88
2024/04/07 01:02:32;;;;;;;;;1.50;1.50;;;;;;;;5051342;28;9567;-88
2024/04/07 01:04:59;;;;;;;;;0.75;0.75;;;;;;;;5052452;28;9753;-88
2024/04/07 01:07:25;;;;;;;;;2.00;2.00;;;;;;;;5052084;28;8871;-88
2024/04/07 01:09:57;;;;;;;;;1.00;1.00;;;;;;;;5052118;28;8978;-87
2024/04/07 01:12:26;;;;;;;;;2.50;1.00;;;;;;;;5054008;28;8855;-87
2024/04/07 01:14:54;;;;;;;;;1.00;1.00;;;;;;;;5052565;28;8997;-87
2024/04/07 01:17:20;;;;;;;;;1.00;1.00;;;;;;;;5052181;28;8873;-88
2024/04/07 01:19:48;;;;;;;;;1.00;1.00;;;;;;;;5050352;28;8899;-88
2024/04/07 01:22:14;;;;;;;;;1.00;1.00;;;;;;;;5049875;28;8873;-89
2024/04/07 01:24:42;;;;;;;;;0.80;0.80;;;;;;;;5050165;28;8981;-86
2024/04/07 01:27:09;;;;;;;;;1.80;0.20;;;;;;;;5051439;28;8870;-87
2024/04/07 01:29:36;;;;;;;;;1.00;1.00;;;;;;;;5050342;28;8855;-88
2024/04/07 01:32:02;;;;;;;;;1.00;1.00;;;;;;;;5050418;28;8795;-88
2024/04/07 01:34:29;;;;;;;;;1.00;1.00;;;;;;;;5050677;28;8883;-88
2024/04/07 01:36:56;;;;;;;;;1.00;0.40;;;;;;;;5050350;28;8913;-87
2024/04/07 01:39:24;;;;;;;;;1.00;1.00;;;;;;;;5050609;28;8982;-87
2024/04/07 01:41:51;;;;;;;;;0.00;0.00;;;;;;;;5051053;28;8989;-90
2024/04/07 01:44:18;;;;;;;;;1.20;1.20;;;;;;;;5050393;28;8867;-91
2024/04/07 01:46:45;;;;;;;;;0.00;0.00;;;;;;;;5050044;28;8855;-89
2024/04/07 01:49:12;;;;;;;;;1.00;1.00;;;;;;;;5050269;28;8844;-88
2024/04/07 01:51:38;;;;;;;;;2.20;0.00;;;;;;;;5050608;28;8870;-88
2024/04/07 01:54:06;;;;;;;;;0.00;0.00;;;;;;;;5050662;28;8858;-89
2024/04/07 01:56:35;;;;;;;;;0.80;0.00;;;;;;;;5050764;28;8957;-87
2024/04/07 01:59:04;;;;;;;;;0.00;0.00;;;;;;;;5037997;28;8858;-88
2024/04/07 02:01:33;;;;;;;;;0.80;0.00;;;;;;;;5049419;28;8811;-88
2024/04/07 02:04:00;;;;;;;;;0.40;0.40;;;;;;;;5050690;28;8894;-88
2024/04/07 02:06:26;;;;;;;;;0.00;0.00;;;;;;;;5050261;28;8977;-87
2024/04/07 02:08:57;;;;;;;;;0.00;0.00;;;;;;;;5051523;28;8867;-88
2024/04/07 02:11:23;;;;;;;;;0.00;0.00;;;;;;;;5051888;28;8859;-88
2024/04/07 02:13:50;;;;;;;;;0.00;0.00;;;;;;;;5052656;28;8952;-90
2024/04/07 02:16:18;;;;;;;;;0.00;0.00;;;;;;;;5052590;28;8812;-88
2024/04/07 02:18:45;;;;;;;;;0.00;0.00;;;;;;;;5053945;28;8858;-88
2024/04/07 02:21:11;;;;;;;;;0.00;0.00;;;;;;;;5053931;28;8846;-89
2024/04/07 02:23:39;;;;;;;;;0.00;0.00;;;;;;;;5054246;28;8847;-89
2024/04/07 02:26:07;;;;;;;;;1.00;1.00;;;;;;;;5054048;28;8866;-88
2024/04/07 02:28:34;;;;;;;;;0.00;0.00;;;;;;;;5051806;28;8881;-88
2024/04/07 02:31:00;;;;;;;;;0.00;0.00;;;;;;;;5049784;28;8772;-87
2024/04/07 02:33:30;;;;;;;;;0.00;0.00;;;;;;;;5050602;28;8859;-89
2024/04/07 02:35:57;;;;;;;;;0.00;0.00;;;;;;;;5049619;28;9610;-90
2024/04/07 02:38:26;;;;;;;;;0.00;0.00;;;;;;;;5049642;28;8874;-87
2024/04/07 02:40:53;;;;;;;;;0.00;0.00;;;;;;;;5049110;28;8867;-84
2024/04/07 02:43:20;;;;;;;;;0.00;0.00;;;;;;;;5049388;28;9586;-85
2024/04/07 02:48:36;;;;;;;;;0.00;0.00;;;;;;;;5048606;28;8835;-82
2024/04/07 02:51:04;;;;;;;;;3.00;0.00;;;;;;;;5038561;28;8873;-84
2024/04/07 02:53:34;;;;;;;;;2.00;0.00;;;;;;;;5049222;28;8881;-83
2024/04/07 02:56:03;;;;;;;;;0.00;0.00;;;;;;;;5050647;28;9018;-83
2024/04/07 02:58:32;;;;;;;;;0.25;0.25;;;;;;;;5050537;28;8843;-83
2024/04/07 03:01:04;;;;;;;;;0.00;0.00;;;;;;;;5055707;28;8895;-84
2024/04/07 03:03:33;;;;;;;;;0.00;0.00;;;;;;;;5056166;28;8944;-86
2024/04/07 03:06:04;;;;;;;;;1.00;0.00;;;;;;;;5051179;28;8870;-86
2024/04/07 03:08:33;;;;;;;;;0.00;0.00;;;;;;;;5048029;28;8867;-86
2024/04/07 03:11:02;;;;;;;;;0.00;0.00;;;;;;;;5048853;28;8872;-85
2024/04/07 03:13:28;;;;;;;;;0.50;0.50;;;;;;;;5049151;28;8940;-86
2024/04/07 03:15:55;;;;;;;;;0.00;0.00;;;;;;;;5049562;28;8835;-86
2024/04/07 03:18:22;;;;;;;;;1.00;0.00;;;;;;;;5050197;28;8998;-86
2024/04/07 03:20:49;;;;;;;;;0.00;0.00;;;;;;;;5050696;28;9618;-86
2024/04/07 03:23:17;;;;;;;;;0.25;0.00;;;;;;;;5051803;28;8894;-86
2024/04/07 03:25:45;;;;;;;;;0.00;0.00;;;;;;;;5049563;28;8859;-86
2024/04/07 03:28:11;;;;;;;;;0.00;0.00;;;;;;;;5049141;28;8874;-86
2024/04/07 03:30:38;;;;;;;;;0.00;0.00;;;;;;;;5047138;28;8764;-86
2024/04/07 03:33:05;;;;;;;;;0.00;0.00;;;;;;;;5049263;28;8966;-85
2024/04/07 03:35:33;;;;;;;;;0.00;0.00;;;;;;;;5048441;28;8879;-84
2024/04/07 03:38:00;;;;;;;;;0.75;0.75;;;;;;;;5037910;28;8851;-84
2024/04/07 03:40:29;;;;;;;;;0.00;0.00;;;;;;;;5048920;28;8876;-84
2024/04/07 03:42:56;;;;;;;;;0.25;0.25;;;;;;;;5048943;28;8873;-89
2024/04/07 03:45:26;;;;;;;;;0.00;0.00;;;;;;;;5048669;28;8828;-88
2024/04/07 03:47:55;;;;;;;;;0.75;0.75;;;;;;;;5048696;28;8874;-89
2024/04/07 03:50:21;;;;;;;;;0.00;0.00;;;;;;;;5048668;28;8949;-88
2024/04/07 03:52:48;;;;;;;;;0.00;0.00;;;;;;;;5048989;28;8959;-87
2024/04/07 03:55:15;;;;;;;;;0.25;0.25;;;;;;;;5049619;28;8874;-90
2024/04/07 03:57:43;;;;;;;;;0.00;0.00;;;;;;;;5051334;28;9626;-86
2024/04/07 04:00:11;;;;;;;;;0.00;0.00;;;;;;;;5054339;28;8958;-87
2024/04/07 04:02:39;;;;;;;;;1.00;1.00;;;;;;;;5055953;28;8863;-86
2024/04/07 04:05:06;;;;;;;;;0.00;0.00;;;;;;;;5055870;28;8897;-86
2024/04/07 04:07:33;;;;;;;;;0.00;0.00;;;;;;;;5054451;28;8848;-86
2024/04/07 04:10:03;;;;;;;;;0.00;0.00;;;;;;;;5056319;28;8858;-89
2024/04/07 04:12:30;;;;;;;;;0.25;0.00;;;;;;;;5056227;28;8889;-88
2024/04/07 04:14:58;;;;;;;;;0.00;0.00;;;;;;;;5051683;28;8925;-88
2024/04/07 04:17:28;;;;;;;;;1.75;1.75;;;;;;;;5052239;28;8998;-89
2024/04/07 04:19:55;;;;;;;;;0.00;0.00;;;;;;;;5051620;28;8871;-89
2024/04/07 04:22:22;;;;;;;;;2.00;1.00;;;;;;;;5052842;28;8875;-89
2024/04/07 04:24:48;;;;;;;;;1.00;1.00;;;;;;;;5052327;28;9018;-89
2024/04/07 04:27:16;;;;;;;;;1.50;0.00;;;;;;;;5052298;28;8869;-89
2024/04/07 04:29:43;;;;;;;;;0.00;0.00;;;;;;;;5052256;28;8972;-90
2024/04/07 04:32:12;;;;;;;;;0.00;0.00;;;;;;;;5051566;28;8819;-90
2024/04/07 04:34:38;;;;;;;;;0.00;0.00;;;;;;;;5051131;28;8869;-90
2024/04/07 04:37:06;;;;;;;;;0.00;0.00;;;;;;;;5050447;28;8906;-89
2024/04/07 04:39:33;;;;;;;;;0.75;0.75;;;;;;;;5052334;28;9794;-90
2024/04/07 04:42:03;;;;;;;;;1.25;0.00;;;;;;;;5054319;28;8932;-89
2024/04/07 04:44:29;;;;;;;;;0.75;0.75;;;;;;;;5054742;28;8948;-89
2024/04/07 04:46:57;;;;;;;;;1.75;0.00;;;;;;;;5053869;28;8843;-89
2024/04/07 04:49:25;;;;;;;;;1.00;1.00;;;;;;;;5051217;28;8863;-89
2024/04/07 04:51:55;;;;;;;;;1.00;0.25;;;;;;;;5051416;28;8867;-89
2024/04/07 04:54:21;;;;;;;;;0.00;0.00;;;;;;;;5052497;28;9665;-89
2024/04/07 04:56:49;;;;;;;;;0.25;0.25;;;;;;;;5050181;28;8936;-89
2024/04/07 04:59:15;;;;;;;;;0.00;0.00;;;;;;;;5052161;28;8851;-89
2024/04/07 05:01:42;;;;;;;;;0.00;0.00;;;;;;;;5054307;28;8865;-89
2024/04/07 05:04:09;;;;;;;;;0.50;0.50;;;;;;;;5056890;28;8847;-89
2024/04/07 05:06:38;;;;;;;;;2.00;0.00;;;;;;;;5054148;28;8832;-88
2024/04/07 05:09:05;;;;;;;;;0.00;0.00;;;;;;;;5054192;28;8873;-91
2024/04/07 05:11:32;;;;;;;;;0.00;0.00;;;;;;;;5050965;28;8871;-85
2024/04/07 05:14:02;;;;;;;;;0.00;0.00;;;;;;;;5051760;28;8856;-87
2024/04/07 05:16:32;;;;;;;;;1.00;1.00;;;;;;;;5051328;28;8862;-88
2024/04/07 05:18:58;;;;;;;;;0.75;0.75;;;;;;;;5051735;28;8855;-88
2024/04/07 05:21:27;;;;;;;;;0.00;0.00;;;;;;;;5051193;28;8863;-88
2024/04/07 05:23:55;;;;;;;;;0.00;0.00;;;;;;;;5051316;28;8990;-87
2024/04/07 05:26:23;;;;;;;;;4.00;1.00;;;;;;;;5050901;28;8867;-88
2024/04/07 05:28:50;;;;;;;;;0.00;0.00;;;;;;;;5050316;28;8877;-88
2024/04/07 05:31:17;;;;;;;;;0.00;0.00;;;;;;;;5050423;28;8874;-88
2024/04/07 05:33:45;;;;;;;;;0.25;0.25;;;;;;;;5050738;28;8875;-88
2024/04/07 05:36:12;;;;;;;;;1.25;0.00;;;;;;;;5050898;28;8874;-88
2024/04/07 05:38:39;;;;;;;;;0.25;0.25;;;;;;;;5052086;28;9009;-87
2024/04/07 05:41:10;;;;;;;;;2.25;1.50;;;;;;;;5052548;28;8867;-86
2024/04/07 05:43:37;;;;;;;;;1.00;1.00;;;;;;;;5050998;28;8862;-88
2024/04/07 05:46:05;;;;;;;;;0.25;0.25;;;;;;;;5053981;28;8874;-88
2024/04/07 05:48:35;;;;;;;;;1.25;1.25;;;;;;;;5054425;28;8855;-88
2024/04/07 05:51:05;;;;;;;;;0.75;0.00;;;;;;;;5054343;28;8948;-87
2024/04/07 05:53:37;;;;;;;;;1.00;1.00;;;;;;;;5054105;28;8839;-87
2024/04/07 05:56:03;;;;;;;;;0.25;0.25;;;;;;;;5055035;28;8901;-89
2024/04/07 05:58:40;;;;;;;;;1.00;1.00;;;;;;;;5052077;28;9601;-89
2024/04/07 06:01:07;;;;;;;;;2.00;0.00;;;;;;;;5050558;28;8875;-89
2024/04/07 06:03:34;;;;;;;;;1.00;1.00;;;;;;;;5048876;28;8859;-75
2024/04/07 06:06:04;;;;;;;;;1.00;1.00;;;;;;;;5052122;28;8882;-77
2024/04/07 06:08:33;;;;;;;;;1.00;1.00;;;;;;;;5053434;28;8839;-78
2024/04/07 06:11:03;;;;;;;;;0.50;0.50;;;;;;;;5043057;28;8866;-78
2024/04/07 06:13:33;;;;;;;;;0.00;0.00;;;;;;;;5044182;28;8987;-78
2024/04/07 06:16:00;;;;;;;;;1.00;1.00;;;;;;;;5043458;28;8945;-76
2024/04/07 06:18:26;;;;;;;;;0.75;0.75;;;;;;;;5048953;28;8847;-77
2024/04/07 06:20:55;;;;;;;;;1.00;1.00;;;;;;;;5048259;28;8877;-75
2024/04/07 06:23:22;;;;;;;;;0.00;0.00;;;;;;;;5048639;28;8910;-76
2024/04/07 06:25:49;;;;;;;;;1.00;1.00;;;;;;;;5048073;28;8851;-75
2024/04/07 06:28:15;;;;;;;;;2.00;2.00;;;;;;;;5036873;28;8871;-77
2024/04/07 06:30:44;;;;;;;;;1.00;0.00;;;;;;;;5048870;28;8902;-77
2024/04/07 06:33:13;;;;;;;;;1.00;1.00;;;;;;;;5037569;28;8875;-77
2024/04/07 06:35:42;;;;;;;;;2.00;2.00;;;;;;;;5047621;28;8936;-75
2024/04/07 06:38:08;;;;;;;;;2.50;1.00;;;;;;;;5048098;28;8851;-75
2024/04/07 06:40:36;;;;;;;;;3.00;1.75;;;;;;;;5047483;28;8960;-78
2024/04/07 06:43:02;;;;;;;;;1.75;1.75;;;;;;;;5047910;28;8851;-76
2024/04/07 06:45:35;;;;;;;;;2.50;1.00;;;;;;;;5047808;28;8867;-77
2024/04/07 06:48:04;;;;;;;;;1.50;1.25;;;;;;;;5048327;28;9005;-76
2024/04/07 06:50:32;;;;;;;;;3.50;2.25;;;;;;;;5048045;28;8839;-79
2024/04/07 06:52:59;;;;;;;;;1.00;1.00;;;;;;;;5049993;28;8874;-76
2024/04/07 06:55:26;;;;;;;;;1.00;1.00;;;;;;;;5049209;28;8859;-79
2024/04/07 06:57:52;;;;;;;;;1.00;1.00;;;;;;;;5048025;28;9021;-78
2024/04/07 07:00:19;;;;;;;;;2.25;1.00;;;;;;;;5046940;28;8898;-78
2024/04/07 07:02:45;;;;;;;;;0.75;0.75;;;;;;;;5047929;28;8865;-78
2024/04/07 07:05:14;;;;;;;;;1.25;1.25;;;;;;;;5047064;28;8859;-80
2024/04/07 07:07:40;;;;;;;;;3.00;1.00;;;;;;;;5048176;28;8843;-81
2024/04/07 07:10:09;;;;;;;;;1.50;1.50;;;;;;;;5046846;28;8866;-79
2024/04/07 07:12:37;;;;;;;;;1.00;1.00;;;;;;;;5046535;28;8864;-80
2024/04/07 07:15:07;;;;;;;;;1.00;1.00;;;;;;;;5047766;28;8835;-81
2024/04/07 07:17:33;;;;;;;;;1.00;1.00;;;;;;;;5047771;28;8917;-79
2024/04/07 07:20:03;;;;;;;;;2.25;2.25;;;;;;;;5048269;28;8858;-78
2024/04/07 07:22:33;;;;;;;;;0.75;0.75;;;;;;;;5047953;28;8927;-78
2024/04/07 07:25:00;;;;;;;;;3.75;2.00;;;;;;;;5049856;28;8974;-77
2024/04/07 07:27:27;;;;;;;;;1.00;1.00;;;;;;;;5050203;28;9717;-74
2024/04/07 07:29:54;;;;;;;;;0.00;0.00;;;;;;;;5048446;28;8847;-76
2024/04/07 07:32:20;;;;;;;;;1.25;1.25;;;;;;;;5049084;28;8807;-77
2024/04/07 07:34:47;;;;;;;;;2.00;0.75;;;;;;;;5052120;28;8855;-75
2024/04/07 07:37:14;;;;;;;;;2.00;2.00;;;;;;;;5053943;28;8924;-76
2024/04/07 07:39:43;;;;;;;;;1.25;1.25;;;;;;;;5053743;28;9034;-78
2024/04/07 07:42:11;;;;;;;;;1.00;1.00;;;;;;;;5053506;28;8863;-76
2024/04/07 07:44:38;;;;;;;;;1.50;1.00;;;;;;;;5052071;28;8916;-77
2024/04/07 07:47:04;;;;;;;;;1.00;1.00;;;;;;;;5051392;28;8898;-81
2024/04/07 07:49:34;;;;;;;;;0.75;0.00;;;;;;;;5051946;28;8867;-75
2024/04/07 07:52:04;;;;;;;;;1.50;1.00;;;;;;;;5052655;28;8862;-78
2024/04/07 07:54:34;;;;;;;;;1.00;1.00;;;;;;;;5052078;28;8981;-75
2024/04/07 07:57:02;;;;;;;;;1.00;1.00;;;;;;;;5051625;28;8871;-77
2024/04/07 07:59:32;;;;;;;;;1.00;1.00;;;;;;;;5051658;28;8850;-74
2024/04/07 08:01:58;;;;;;;;;1.00;0.75;;;;;;;;5050449;28;8807;-75
2024/04/07 08:04:25;;;;;;;;;1.75;0.75;;;;;;;;5051304;28;8924;-76
2024/04/07 08:06:52;;;;;;;;;0.25;0.25;;;;;;;;5051373;28;9625;-76
2024/04/07 08:09:23;;;;;;;;;0.75;0.75;;;;;;;;5051617;28;8965;-77
2024/04/07 08:11:50;;;;;;;;;0.75;0.75;;;;;;;;5051448;28;8843;-78
2024/04/07 08:14:19;;;;;;;;;1.25;1.00;;;;;;;;5052420;28;8862;-76
2024/04/07 08:16:47;;;;;;;;;3.00;1.00;;;;;;;;5051651;28;8938;-79
2024/04/07 08:19:15;;;;;;;;;1.00;1.00;;;;;;;;5051578;28;8854;-80
2024/04/07 08:21:43;;;;;;;;;0.50;0.50;;;;;;;;5050746;28;8913;-79
2024/04/07 08:24:10;;;;;;;;;2.50;1.00;;;;;;;;5051188;28;8986;-78
2024/04/07 08:26:38;;;;;;;;;1.50;1.50;;;;;;;;5050949;28;8923;-81
2024/04/07 08:29:08;;;;;;;;;0.25;0.25;;;;;;;;5050518;28;8851;-79
2024/04/07 08:31:37;;;;;;;;;1.25;0.75;;;;;;;;5050677;28;8807;-81
2024/04/07 08:34:03;;;;;;;;;0.75;0.75;;;;;;;;5051007;28;8894;-86
2024/04/07 08:36:32;;;;;;;;;0.50;0.50;;;;;;;;5051681;28;8851;-78
2024/04/07 08:39:01;;;;;;;;;1.00;1.00;;;;;;;;5052721;28;8863;-75
2024/04/07 08:41:39;;;;;;;;;2.00;1.00;;;;;;;;5051440;28;8863;-81
2024/04/07 08:44:12;;;;;;;;;0.75;0.75;;;;;;;;5050806;28;8954;-80
2024/04/07 08:46:41;;;;;;;;;1.00;1.00;;;;;;;;5050366;28;8852;-81
2024/04/07 08:49:08;;;;;;;;;0.75;0.75;;;;;;;;5050673;28;8827;-81
2024/04/07 08:51:36;;;;;;;;;1.00;1.00;;;;;;;;5050359;28;8851;-79
2024/04/07 08:54:04;;;;;;;;;1.25;0.75;;;;;;;;5049409;28;8874;-77
2024/04/07 08:56:31;;;;;;;;;2.25;2.25;;;;;;;;5050450;28;8924;-80
2024/04/07 08:58:59;;;;;;;;;1.00;1.00;;;;;;;;5050269;28;8847;-79
2024/04/07 09:01:31;;;;;;;;;1.00;1.00;;;;;;;;5050106;28;8803;-76
2024/04/07 09:04:02;;;;;;;;;2.00;2.00;;;;;;;;5050422;28;8866;-78
2024/04/07 09:06:30;;;;;;;;;0.25;0.25;;;;;;;;5051644;28;8870;-74
2024/04/07 09:09:05;;;;;;;;;0.50;0.50;;;;;;;;5051038;28;8874;-76
2024/04/07 09:11:37;;;;;;;;;1.00;1.00;;;;;;;;5050908;28;8859;-73
2024/04/07 09:14:04;;;;;;;;;1.50;0.00;;;;;;;;5051544;28;8896;-74
2024/04/07 09:16:34;;;;;;;;;2.75;1.75;;;;;;;;5051218;28;8881;-74
2024/04/07 09:19:02;;;;;;;;;0.00;0.00;;;;;;;;5052304;28;8843;-76
2024/04/07 09:21:29;;;;;;;;;0.00;0.00;;;;;;;;5052218;28;8867;-76
2024/04/07 09:23:56;;;;;;;;;0.00;0.00;;;;;;;;5052753;28;8858;-76
2024/04/07 09:26:22;;;;;;;;;1.00;1.00;;;;;;;;5050985;28;8843;-78
2024/04/07 09:28:50;;;;;;;;;0.25;0.25;;;;;;;;5050287;28;8965;-81
2024/04/07 09:31:18;;;;;;;;;1.00;1.00;;;;;;;;5041494;28;8835;-81
2024/04/07 09:33:47;;;;;;;;;2.25;0.75;;;;;;;;5049215;28;8855;-79
2024/04/07 09:36:15;;;;;;;;;0.75;0.75;;;;;;;;5049314;28;8835;-77
2024/04/07 09:38:42;;;;;;;;;1.00;1.00;;;;;;;;5048933;28;8851;-78
2024/04/07 09:41:11;;;;;;;;;1.00;1.00;;;;;;;;5049658;28;8855;-78
2024/04/07 09:43:41;;;;;;;;;0.50;0.00;;;;;;;;5050450;28;9752;-75
2024/04/07 09:46:09;;;;;;;;;0.00;0.00;;;;;;;;5051814;28;8897;-76
2024/04/07 09:48:36;;;;;;;;;0.75;0.50;;;;;;;;5048830;28;8843;-79
2024/04/07 09:51:08;;;;;;;;;1.00;1.00;;;;;;;;5049104;28;8851;-78
2024/04/07 09:53:44;;;;;;;;;1.00;1.00;;;;;;;;5048788;28;8928;-77
2024/04/07 09:56:19;;;;;;;;;1.40;0.80;;;;;;;;5049642;28;9702;-78
2024/04/07 09:58:47;;;;;;;;;0.60;0.60;;;;;;;;5049710;28;8848;-78
2024/04/07 10:01:14;;;;;;;;;1.00;1.00;;;;;;;;5048252;28;8775;-78
2024/04/07 10:03:43;;;;;;;;;0.80;0.80;;;;;;;;5048597;28;9636;-79
2024/04/07 10:06:14;;;;;;;;;1.20;0.00;;;;;;;;5049736;28;8897;-78
2024/04/07 10:08:43;;;;;;;;;1.80;1.80;;;;;;;;5048874;28;8855;-78
2024/04/07 10:11:16;;;;;;;;;0.40;0.40;;;;;;;;5049021;28;8855;-81
2024/04/07 10:13:44;;;;;;;;;0.00;0.00;;;;;;;;5048270;28;8847;-81
2024/04/07 10:16:14;;;;;;;;;0.60;0.60;;;;;;;;5048661;28;8856;-83
2024/04/07 10:18:50;;;;;;;;;0.80;0.80;;;;;;;;5049120;28;8902;-82
2024/04/07 10:21:16;;;;;;;;;1.00;1.00;;;;;;;;5048977;28;8855;-80
2024/04/07 10:23:56;;;;;;;;;0.00;0.00;;;;;;;;5048773;28;8961;-80
2024/04/07 10:26:35;;;;;;;;;;;;;;;;;;;;;
2024/04/07 10:29:09;;;;;;;;;0.60;0.60;;;;;;;;5049160;28;8854;-78
2024/04/07 10:31:37;;;;;;;;;0.00;0.00;;;;;;;;5048071;28;8803;-80
2024/04/07 10:34:05;;;;;;;;;0.40;0.40;;;;;;;;5048506;28;8847;-80
2024/04/07 10:36:34;;;;;;;;;2.20;0.00;;;;;;;;5049275;28;8855;-74
2024/04/07 10:39:03;;;;;;;;;1.00;1.00;;;;;;;;5048281;28;8843;-80
2024/04/07 10:41:36;;;;;;;;;1.60;0.00;;;;;;;;5048266;28;8864;-78
2024/04/07 10:44:04;;;;;;;;;0.00;0.00;;;;;;;;5048626;28;8847;-79
2024/04/07 10:46:31;;;;;;;;;2.20;0.20;;;;;;;;5048621;28;8948;-75
2024/04/07 10:49:03;;;;;;;;;0.00;0.00;;;;;;;;5047812;28;8955;-77
2024/04/07 10:51:29;;;;;;;;;0.40;0.00;;;;;;;;5048782;28;8968;-79
2024/04/07 10:54:03;;;;;;;;;0.00;0.00;;;;;;;;5047472;28;9625;-79
2024/04/07 10:56:30;;;;;;;;;0.20;0.20;;;;;;;;5037228;28;8845;-76
2024/04/07 10:59:00;;;;;;;;;1.60;0.00;;;;;;;;5048912;28;8843;-78
2024/04/07 11:01:27;;;;;;;;;0.00;0.00;;;;;;;;5044511;28;8796;-74
2024/04/07 11:03:57;;;;;;;;;0.00;0.00;;;;;;;;5050018;28;8950;-74
2024/04/07 11:06:23;;;;;;;;;1.00;0.60;;;;;;;;5051053;28;8951;-77
2024/04/07 11:08:51;;;;;;;;;1.80;0.00;;;;;;;;5047989;28;8863;-77
2024/04/07 11:11:19;;;;;;;;;0.00;0.00;;;;;;;;5047226;28;8830;-79
2024/04/07 11:13:47;;;;;;;;;2.40;0.20;;;;;;;;5048928;28;9657;-74
2024/04/07 11:16:13;;;;;;;;;0.00;0.00;;;;;;;;5049583;28;8863;-78
2024/04/07 11:18:45;;;;;;;;;1.00;0.80;;;;;;;;5049484;28;8945;-77
2024/04/07 11:21:11;;;;;;;;;2.60;1.00;;;;;;;;5048035;28;8966;-77
2024/04/07 11:23:38;;;;;;;;;0.00;0.00;;;;;;;;5046736;28;8882;-75
2024/04/07 11:26:05;;;;;;;;;1.20;0.00;;;;;;;;5046602;28;8862;-75
2024/04/07 11:28:38;;;;;;;;;0.40;0.00;;;;;;;;5047053;28;8863;-76
2024/04/07 11:31:08;;;;;;;;;0.60;0.00;;;;;;;;5046361;28;8790;-77
2024/04/07 11:33:36;;;;;;;;;0.00;0.00;;;;;;;;5047073;28;8863;-78
2024/04/07 11:36:02;;;;;;;;;0.20;0.00;;;;;;;;5047209;28;8855;-78
2024/04/07 11:38:39;;;;;;;;;1.60;0.00;;;;;;;;5048422;28;8963;-78
2024/04/07 11:41:05;;;;;;;;;0.80;0.80;;;;;;;;5046687;28;8879;-79
2024/04/07 11:43:37;;;;;;;;;1.80;0.00;;;;;;;;5048679;28;8920;-78
2024/04/07 11:46:03;;;;;;;;;0.00;0.00;;;;;;;;5047374;28;8859;-82
2024/04/07 11:48:31;;;;;;;;;0.00;0.00;;;;;;;;5047433;28;8862;-80
2024/04/07 11:50:58;;;;;;;;;2.40;1.20;;;;;;;;5046560;28;8832;-77
2024/04/07 11:53:25;;;;;;;;;1.20;1.20;;;;;;;;5046919;28;8859;-77
2024/04/07 11:55:51;;;;;;;;;1.20;0.80;;;;;;;;5046827;28;9994;-78
2024/04/07 11:58:18;;;;;;;;;0.20;0.20;;;;;;;;5045986;28;8851;-78
2024/04/07 12:00:46;;;;;;;;;1.00;1.00;;;;;;;;5046215;28;8886;-77
2024/04/07 12:03:13;;;;;;;;;0.80;0.80;;;;;;;;5046777;28;8879;-78
2024/04/07 12:05:42;;;;;;;;;0.00;0.00;;;;;;;;5048328;28;8858;-77
2024/04/07 12:08:09;;;;;;;;;1.20;1.20;;;;;;;;5046722;28;8868;-77
2024/04/07 12:10:35;;;;;;;;;3.60;0.80;;;;;;;;5046609;28;8836;-77
2024/04/07 12:13:05;;;;;;;;;2.60;2.60;;;;;;;;5046517;28;8847;-76
2024/04/07 12:15:32;;;;;;;;;1.20;1.20;;;;;;;;5046380;28;9691;-77
2024/04/07 12:18:03;;;;;;;;;0.80;0.80;;;;;;;;5047077;28;8855;-77
2024/04/07 12:20:29;;;;;;;;;4.40;2.00;;;;;;;;5049486;28;8890;-75
2024/04/07 12:22:56;;;;;;;;;2.00;2.00;;;;;;;;5050126;28;8839;-75
2024/04/07 12:25:23;;;;;;;;;0.60;0.60;;;;;;;;5050710;28;8851;-78
2024/04/07 12:27:50;;;;;;;;;1.00;1.00;;;;;;;;5049341;28;9835;-78
2024/04/07 12:30:17;;;;;;;;;1.00;1.00;;;;;;;;5044370;28;8871;-76
2024/04/07 12:32:44;;;;;;;;;0.80;0.80;;;;;;;;5066633;28;8843;-78
2024/04/07 12:35:12;;;;;;;;;0.80;0.80;;;;;;;;5051610;28;8869;-75
2024/04/07 12:37:40;;;;;;;;;0.80;0.80;;;;;;;;5050686;28;8847;-74
2024/04/07 12:40:07;;;;;;;;;0.80;0.80;;;;;;;;5052200;28;9013;-75
2024/04/07 12:42:35;;;;;;;;;2.00;1.80;;;;;;;;5051670;28;8922;-74
2024/04/07 12:45:04;;;;;;;;;2.80;1.00;;;;;;;;5051999;28;8863;-75
2024/04/07 12:47:34;;;;;;;;;3.80;2.00;;;;;;;;5052090;28;8863;-75
2024/04/07 12:50:04;;;;;;;;;1.00;1.00;;;;;;;;5042817;28;8858;-78
2024/04/07 12:52:35;;;;;;;;;1.60;0.80;;;;;;;;5050181;28;8940;-80
2024/04/07 12:55:05;;;;;;;;;2.60;2.20;;;;;;;;5050357;28;8867;-75
2024/04/07 12:57:43;;;;;;;;;1.00;1.00;;;;;;;;5048863;28;8827;-75
2024/04/07 13:00:14;;;;;;;;;3.00;1.80;;;;;;;;5048930;28;8855;-78
2024/04/07 13:02:41;;;;;;;;;4.40;0.80;;;;;;;;5049469;28;8863;-77
2024/04/07 13:05:07;;;;;;;;;2.80;2.80;;;;;;;;5050523;28;9042;-78
2024/04/07 13:07:36;;;;;;;;;2.00;2.00;;;;;;;;5049577;28;8851;-76
2024/04/07 13:10:04;;;;;;;;;2.00;2.00;;;;;;;;5049328;28;8851;-76
2024/04/07 13:12:33;;;;;;;;;2.00;2.00;;;;;;;;5050043;28;8846;-77
2024/04/07 13:15:04;;;;;;;;;1.40;1.40;;;;;;;;5049973;28;8969;-77
2024/04/07 13:17:37;;;;;;;;;1.60;1.60;;;;;;;;5050274;28;8900;-77
2024/04/07 13:20:04;;;;;;;;;4.20;2.00;;;;;;;;5049934;28;8855;-78
2024/04/07 13:22:36;;;;;;;;;1.80;1.80;;;;;;;;5051576;28;8893;-77
2024/04/07 13:25:04;;;;;;;;;1.20;1.20;;;;;;;;5039822;28;8872;-80
2024/04/07 13:27:44;;;;;;;;;1.00;1.00;;;;;;;;5052406;28;8840;-76
2024/04/07 13:30:11;;;;;;;;;1.40;0.20;;;;;;;;5049180;28;8875;-79
2024/04/07 13:32:38;;;;;;;;;2.00;2.00;;;;;;;;5047594;28;8912;-77
2024/04/07 13:35:05;;;;;;;;;5.00;2.20;;;;;;;;5049914;28;9004;-79
2024/04/07 13:37:36;;;;;;;;;1.00;1.00;;;;;;;;5048307;28;8858;-75
2024/04/07 13:40:03;;;;;;;;;1.20;1.20;;;;;;;;5048445;28;9776;-78
2024/04/07 13:42:32;;;;;;;;;0.00;0.00;;;;;;;;5049101;28;8887;-78
2024/04/07 13:45:10;;;;;;;;;1.80;0.60;;;;;;;;5049828;28;8871;-80
2024/04/07 13:47:38;;;;;;;;;0.80;0.80;;;;;;;;5048292;28;8985;-77
2024/04/07 13:50:07;;;;;;;;;0.40;0.40;;;;;;;;5048924;28;8981;-81
2024/04/07 13:52:35;;;;;;;;;4.20;1.80;;;;;;;;5049300;28;8851;-81
2024/04/07 13:55:02;;;;;;;;;1.00;1.00;;;;;;;;5049306;28;8863;-78
2024/04/07 13:57:36;;;;;;;;;0.20;0.20;;;;;;;;5049174;28;8913;-79
2024/04/07 14:00:04;;;;;;;;;2.40;2.40;;;;;;;;5049100;28;8831;-79
2024/04/07 14:02:34;;;;;;;;;1.40;1.40;;;;;;;;5049005;28;8835;-81
2024/04/07 14:05:00;;;;;;;;;1.80;1.40;;;;;;;;5050485;28;9656;-77
2024/04/07 14:07:28;;;;;;;;;1.40;1.40;;;;;;;;5049209;28;8879;-76
2024/04/07 14:09:55;;;;;;;;;5.40;2.00;;;;;;;;5048912;28;8859;-81
2024/04/07 14:12:23;;;;;;;;;0.40;0.40;;;;;;;;5049378;28;8874;-78
2024/04/07 14:14:50;;;;;;;;;3.00;3.00;;;;;;;;5049051;28;8871;-75
2024/04/07 14:17:17;;;;;;;;;2.00;0.20;;;;;;;;5049858;28;8862;-76
2024/04/07 14:19:43;;;;;;;;;2.20;2.20;;;;;;;;5049811;28;8981;-73
2024/04/07 14:22:11;;;;;;;;;1.40;1.40;;;;;;;;5050725;28;8901;-75
2024/04/07 14:24:37;;;;;;;;;2.40;2.40;;;;;;;;5050156;28;8933;-73
2024/04/07 14:27:07;;;;;;;;;3.60;3.60;;;;;;;;5050814;28;8851;-75
2024/04/07 14:29:33;;;;;;;;;2.60;2.60;;;;;;;;5049892;28;8878;-77
2024/04/07 14:32:04;;;;;;;;;4.20;3.60;;;;;;;;5052010;28;8838;-75
2024/04/07 14:34:35;;;;;;;;;1.40;1.20;;;;;;;;5050571;28;8862;-80
2024/04/07 14:37:02;;;;;;;;;2.60;2.60;;;;;;;;5049887;28;8970;-74
2024/04/07 14:39:29;;;;;;;;;1.60;1.60;;;;;;;;5050089;28;8858;-77
2024/04/07 14:41:58;;;;;;;;;3.00;3.00;;;;;;;;5048186;28;8843;-78
2024/04/07 14:44:26;;;;;;;;;4.40;3.80;;;;;;;;5048588;28;9646;-80
2024/04/07 14:46:53;;;;;;;;;4.00;2.40;;;;;;;;5048101;28;9000;-81
2024/04/07 14:49:21;;;;;;;;;2.80;2.40;;;;;;;;5048468;28;8893;-76
2024/04/07 14:51:48;;;;;;;;;1.80;1.80;;;;;;;;5047778;28;8883;-77
2024/04/07 14:54:15;;;;;;;;;2.20;2.20;;;;;;;;5048455;28;9763;-80
2024/04/07 14:56:42;;;;;;;;;4.00;2.20;;;;;;;;5047640;28;8952;-80
2024/04/07 14:59:11;;;;;;;;;3.00;3.00;;;;;;;;5048403;28;8863;-77
2024/04/07 15:01:39;;;;;;;;;4.20;3.20;;;;;;;;5045295;28;9636;-78
2024/04/07 15:04:06;;;;;;;;;4.20;4.20;;;;;;;;5048244;28;8855;-76
2024/04/07 15:06:33;;;;;;;;;2.60;2.60;;;;;;;;5049344;28;8924;-80